sensor_id;sensor_type;location;lat;lon;timestamp;pressure;altitude;pressure_sealevel;temperature;humidity
21658;BME280;10990;48.174;9.782;2023-03-04T00:01:55;94633.25;;;-1.28;100.00
21658;BME280;10990;48.174;9.782;2023-03-04T00:04:22;94611.66;;;-1.03;100.00
21658;BME280;10990;48.174;9.782;2023-03-04T00:06:48;94617.88;;;-1.06;100.00
21658;BME280;10990;48.174;9.782;2023-03-04T00:09:15;94614.63;;;-0.97;100.00
21658;BME280;10990;48.174;9.782;2023-03-04T00:11:42;94605.91;;;-0.83;100.00
21658;BME280;10990;48.174;9.782;2023-03-04T00:14:09;94640.09;;;-1.15;100.00
21658;BME280;10990;48.174;9.782;2023-03-04T00:16:36;94640.69;;;-1.37;100.00
21658;BME280;10990;48.174;9.782;2023-03-04T00:19:04;94637.81;;;-1.32;100.00
21658;BME280;10990;48.174;9.782;2023-03-04T00:21:30;94622.44;;;-1.22;100.00
21658;BME280;10990;48.174;9.782;2023-03-04T00:23:57;94615.38;;;-1.07;100.00
21658;BME280;10990;48.174;9.782;2023-03-04T00:26:24;94611.53;;;-1.02;100.00
21658;BME280;10990;48.174;9.782;2023-03-04T00:28:51;94609.06;;;-1.03;100.00
21658;BME280;10990;48.174;9.782;2023-03-04T00:31:17;94619.94;;;-1.11;100.00
21658;BME280;10990;48.174;9.782;2023-03-04T00:33:45;94608.41;;;-0.94;100.00
21658;BME280;10990;48.174;9.782;2023-03-04T00:36:13;94615.59;;;-0.98;100.00
21658;BME280;10990;48.174;9.782;2023-03-04T00:38:39;94616.84;;;-1.03;100.00
21658;BME280;10990;48.174;9.782;2023-03-04T00:41:07;94618.09;;;-1.09;100.00
21658;BME280;10990;48.174;9.782;2023-03-04T00:43:34;94613.28;;;-1.02;100.00
21658;BME280;10990;48.174;9.782;2023-03-04T00:46:00;94625.34;;;-1.14;100.00
21658;BME280;10990;48.174;9.782;2023-03-04T00:48:28;94628.38;;;-1.20;100.00
21658;BME280;10990;48.174;9.782;2023-03-04T00:50:55;94608.53;;;-1.08;100.00
21658;BME280;10990;48.174;9.782;2023-03-04T00:53:23;94634.47;;;-1.47;100.00
21658;BME280;10990;48.174;9.782;2023-03-04T00:55:50;94631.78;;;-1.32;100.00
21658;BME280;10990;48.174;9.782;2023-03-04T00:58:17;94625.16;;;-1.24;100.00
21658;BME280;10990;48.174;9.782;2023-03-04T01:00:44;94637.06;;;-1.34;100.00
21658;BME280;10990;48.174;9.782;2023-03-04T01:03:10;94633.34;;;-1.43;100.00
21658;BME280;10990;48.174;9.782;2023-03-04T01:05:37;94637.38;;;-1.51;100.00
21658;BME280;10990;48.174;9.782;2023-03-04T01:08:04;94644.81;;;-1.47;100.00
21658;BME280;10990;48.174;9.782;2023-03-04T01:10:32;94643.88;;;-1.59;100.00
21658;BME280;10990;48.174;9.782;2023-03-04T01:12:59;94661.78;;;-1.81;100.00
21658;BME280;10990;48.174;9.782;2023-03-04T01:15:26;94636.50;;;-1.65;100.00
21658;BME280;10990;48.174;9.782;2023-03-04T01:17:53;94615.81;;;-1.52;100.00
21658;BME280;10990;48.174;9.782;2023-03-04T01:20:20;94617.88;;;-1.44;100.00
21658;BME280;10990;48.174;9.782;2023-03-04T01:22:47;94626.69;;;-1.60;100.00
21658;BME280;10990;48.174;9.782;2023-03-04T01:25:14;94613.22;;;-1.52;100.00
21658;BME280;10990;48.174;9.782;2023-03-04T01:27:42;94603.88;;;-1.54;100.00
21658;BME280;10990;48.174;9.782;2023-03-04T01:30:10;94602.72;;;-1.50;100.00
21658;BME280;10990;48.174;9.782;2023-03-04T01:32:37;94604.38;;;-1.49;100.00
21658;BME280;10990;48.174;9.782;2023-03-04T01:35:04;94605.63;;;-1.55;100.00
21658;BME280;10990;48.174;9.782;2023-03-04T01:37:31;94606.84;;;-1.61;100.00
21658;BME280;10990;48.174;9.782;2023-03-04T01:39:58;94617.97;;;-1.71;100.00
21658;BME280;10990;48.174;9.782;2023-03-04T01:42:26;94601.50;;;-1.58;100.00
21658;BME280;10990;48.174;9.782;2023-03-04T01:44:56;94599.31;;;-1.51;100.00
21658;BME280;10990;48.174;9.782;2023-03-04T01:47:26;94605.81;;;-1.58;100.00
21658;BME280;10990;48.174;9.782;2023-03-04T01:49:55;94599.19;;;-1.49;100.00
21658;BME280;10990;48.174;9.782;2023-03-04T01:52:23;94600.03;;;-1.49;100.00
21658;BME280;10990;48.174;9.782;2023-03-04T01:54:52;94616.06;;;-1.69;100.00
21658;BME280;10990;48.174;9.782;2023-03-04T01:57:21;94600.75;;;-1.60;100.00
21658;BME280;10990;48.174;9.782;2023-03-04T02:00:14;94599.69;;;-1.70;100.00
21658;BME280;10990;48.174;9.782;2023-03-04T02:02:44;94612.75;;;-1.84;100.00
21658;BME280;10990;48.174;9.782;2023-03-04T02:05:11;94621.22;;;-1.95;100.00
21658;BME280;10990;48.174;9.782;2023-03-04T02:07:39;94608.03;;;-2.05;100.00
21658;BME280;10990;48.174;9.782;2023-03-04T02:10:07;94595.41;;;-1.84;100.00
21658;BME280;10990;48.174;9.782;2023-03-04T02:12:34;94594.81;;;-1.87;100.00
21658;BME280;10990;48.174;9.782;2023-03-04T02:15:01;94581.44;;;-1.81;100.00
21658;BME280;10990;48.174;9.782;2023-03-04T02:17:31;94595.22;;;-1.93;100.00
21658;BME280;10990;48.174;9.782;2023-03-04T02:20:02;94583.19;;;-1.82;100.00
21658;BME280;10990;48.174;9.782;2023-03-04T02:22:37;94584.66;;;-1.77;100.00
21658;BME280;10990;48.174;9.782;2023-03-04T02:25:09;94581.56;;;-1.70;100.00
21658;BME280;10990;48.174;9.782;2023-03-04T02:27:38;94592.63;;;-1.81;100.00
21658;BME280;10990;48.174;9.782;2023-03-04T02:30:05;94594.19;;;-1.78;100.00
21658;BME280;10990;48.174;9.782;2023-03-04T02:32:32;94591.31;;;-1.73;100.00
21658;BME280;10990;48.174;9.782;2023-03-04T02:34:59;94588.59;;;-1.72;100.00
21658;BME280;10990;48.174;9.782;2023-03-04T02:37:26;94606.47;;;-1.94;100.00
21658;BME280;10990;48.174;9.782;2023-03-04T02:39:54;94612.19;;;-2.02;100.00
21658;BME280;10990;48.174;9.782;2023-03-04T02:42:21;94606.81;;;-1.99;100.00
21658;BME280;10990;48.174;9.782;2023-03-04T02:44:59;94595.84;;;-1.90;100.00
21658;BME280;10990;48.174;9.782;2023-03-04T02:47:26;94627.78;;;-2.16;100.00
21658;BME280;10990;48.174;9.782;2023-03-04T02:49:54;94613.69;;;-2.12;100.00
21658;BME280;10990;48.174;9.782;2023-03-04T02:52:24;94602.56;;;-1.87;100.00
21658;BME280;10990;48.174;9.782;2023-03-04T02:54:52;94604.03;;;-1.83;100.00
21658;BME280;10990;48.174;9.782;2023-03-04T02:57:19;94617.91;;;-1.97;100.00
21658;BME280;10990;48.174;9.782;2023-03-04T02:59:52;94627.41;;;-2.10;100.00
21658;BME280;10990;48.174;9.782;2023-03-04T03:02:22;94615.41;;;-1.98;100.00
21658;BME280;10990;48.174;9.782;2023-03-04T03:04:50;94609.31;;;-1.85;100.00
21658;BME280;10990;48.174;9.782;2023-03-04T03:07:18;94615.81;;;-1.92;100.00
21658;BME280;10990;48.174;9.782;2023-03-04T03:09:45;94617.59;;;-1.92;100.00
21658;BME280;10990;48.174;9.782;2023-03-04T03:12:12;94617.59;;;-1.92;100.00
21658;BME280;10990;48.174;9.782;2023-03-04T03:14:39;94618.72;;;-1.96;100.00
21658;BME280;10990;48.174;9.782;2023-03-04T03:17:09;94626.38;;;-2.08;100.00
21658;BME280;10990;48.174;9.782;2023-03-04T03:19:36;94647.06;;;-2.35;100.00
21658;BME280;10990;48.174;9.782;2023-03-04T03:22:05;94633.16;;;-2.19;100.00
21658;BME280;10990;48.174;9.782;2023-03-04T03:24:32;94638.31;;;-2.46;100.00
21658;BME280;10990;48.174;9.782;2023-03-04T03:26:58;94639.50;;;-2.38;100.00
21658;BME280;10990;48.174;9.782;2023-03-04T03:29:26;94639.06;;;-2.44;100.00
21658;BME280;10990;48.174;9.782;2023-03-04T03:31:52;94640.31;;;-2.37;100.00
21658;BME280;10990;48.174;9.782;2023-03-04T03:34:22;94634.06;;;-2.20;100.00
21658;BME280;10990;48.174;9.782;2023-03-04T03:36:49;94624.59;;;-2.07;100.00
21658;BME280;10990;48.174;9.782;2023-03-04T03:39:16;94635.75;;;-2.19;100.00
21658;BME280;10990;48.174;9.782;2023-03-04T03:41:43;94636.28;;;-2.14;100.00
21658;BME280;10990;48.174;9.782;2023-03-04T03:44:09;94644.44;;;-2.20;100.00
21658;BME280;10990;48.174;9.782;2023-03-04T03:46:36;94643.84;;;-2.11;100.00
21658;BME280;10990;48.174;9.782;2023-03-04T03:49:03;94648.50;;;-2.16;100.00
21658;BME280;10990;48.174;9.782;2023-03-04T03:51:31;94652.06;;;-2.05;100.00
21658;BME280;10990;48.174;9.782;2023-03-04T03:53:57;94651.63;;;-2.11;100.00
21658;BME280;10990;48.174;9.782;2023-03-04T03:56:24;94649.88;;;-2.11;100.00
21658;BME280;10990;48.174;9.782;2023-03-04T03:58:51;94656.91;;;-2.13;100.00
21658;BME280;10990;48.174;9.782;2023-03-04T04:01:20;94662.97;;;-1.99;100.00
21658;BME280;10990;48.174;9.782;2023-03-04T04:03:46;94667.34;;;-2.14;100.00
21658;BME280;10990;48.174;9.782;2023-03-04T04:06:13;94654.41;;;-2.14;100.00
21658;BME280;10990;48.174;9.782;2023-03-04T04:08:42;94666.78;;;-2.32;100.00
21658;BME280;10990;48.174;9.782;2023-03-04T04:11:09;94652.47;;;-2.11;100.00
21658;BME280;10990;48.174;9.782;2023-03-04T04:13:36;94661.53;;;-2.18;100.00
21658;BME280;10990;48.174;9.782;2023-03-04T04:16:03;94680.09;;;-2.38;100.00
21658;BME280;10990;48.174;9.782;2023-03-04T04:18:30;94665.28;;;-2.22;100.00
21658;BME280;10990;48.174;9.782;2023-03-04T04:20:57;94673.41;;;-2.28;100.00
21658;BME280;10990;48.174;9.782;2023-03-04T04:23:24;94675.66;;;-2.36;100.00
21658;BME280;10990;48.174;9.782;2023-03-04T04:25:53;94677.97;;;-2.46;100.00
21658;BME280;10990;48.174;9.782;2023-03-04T04:28:20;94669.44;;;-2.34;100.00
21658;BME280;10990;48.174;9.782;2023-03-04T04:30:47;94669.84;;;-2.40;100.00
21658;BME280;10990;48.174;9.782;2023-03-04T04:33:14;94680.38;;;-2.43;100.00
21658;BME280;10990;48.174;9.782;2023-03-04T04:35:40;94689.66;;;-2.53;100.00
21658;BME280;10990;48.174;9.782;2023-03-04T04:38:08;94682.53;;;-2.50;100.00
21658;BME280;10990;48.174;9.782;2023-03-04T04:40:35;94688.00;;;-2.68;100.00
21658;BME280;10990;48.174;9.782;2023-03-04T04:43:03;94678.81;;;-2.45;100.00
21658;BME280;10990;48.174;9.782;2023-03-04T04:45:31;94684.81;;;-2.45;100.00
21658;BME280;10990;48.174;9.782;2023-03-04T04:47:58;94676.97;;;-2.43;100.00
21658;BME280;10990;48.174;9.782;2023-03-04T04:50:25;94684.66;;;-2.42;100.00
21658;BME280;10990;48.174;9.782;2023-03-04T04:52:51;94685.38;;;-2.40;100.00
21658;BME280;10990;48.174;9.782;2023-03-04T04:55:18;94681.97;;;-2.55;100.00
21658;BME280;10990;48.174;9.782;2023-03-04T04:57:45;94679.81;;;-2.48;100.00
21658;BME280;10990;48.174;9.782;2023-03-04T05:00:14;94681.41;;;-2.45;100.00
21658;BME280;10990;48.174;9.782;2023-03-04T05:02:42;94687.34;;;-2.58;100.00
21658;BME280;10990;48.174;9.782;2023-03-04T05:05:09;94700.47;;;-2.46;100.00
21658;BME280;10990;48.174;9.782;2023-03-04T05:07:36;94686.53;;;-2.31;100.00
21658;BME280;10990;48.174;9.782;2023-03-04T05:10:03;94700.66;;;-2.50;100.00
21658;BME280;10990;48.174;9.782;2023-03-04T05:12:30;94692.94;;;-2.37;100.00
21658;BME280;10990;48.174;9.782;2023-03-04T05:14:57;94697.91;;;-2.34;100.00
21658;BME280;10990;48.174;9.782;2023-03-04T05:17:25;94717.22;;;-2.66;100.00
21658;BME280;10990;48.174;9.782;2023-03-04T05:19:52;94716.72;;;-2.87;100.00
21658;BME280;10990;48.174;9.782;2023-03-04T05:22:18;94712.31;;;-2.71;100.00
21658;BME280;10990;48.174;9.782;2023-03-04T05:24:45;94703.63;;;-2.70;100.00
21658;BME280;10990;48.174;9.782;2023-03-04T05:27:12;94700.31;;;-2.72;100.00
21658;BME280;10990;48.174;9.782;2023-03-04T05:29:38;94702.53;;;-2.80;100.00
21658;BME280;10990;48.174;9.782;2023-03-04T05:32:07;94701.22;;;-2.87;100.00
21658;BME280;10990;48.174;9.782;2023-03-04T05:34:35;94695.75;;;-2.68;100.00
21658;BME280;10990;48.174;9.782;2023-03-04T05:37:01;94696.50;;;-2.52;100.00
21658;BME280;10990;48.174;9.782;2023-03-04T05:39:28;94699.91;;;-2.66;100.00
21658;BME280;10990;48.174;9.782;2023-03-04T05:41:55;94702.25;;;-2.61;100.00
21658;BME280;10990;48.174;9.782;2023-03-04T05:44:21;94711.59;;;-2.73;100.00
21658;BME280;10990;48.174;9.782;2023-03-04T05:46:48;94710.66;;;-2.72;100.00
21658;BME280;10990;48.174;9.782;2023-03-04T05:49:15;94720.91;;;-2.85;100.00
21658;BME280;10990;48.174;9.782;2023-03-04T05:51:43;94719.16;;;-2.84;100.00
21658;BME280;10990;48.174;9.782;2023-03-04T05:54:10;94721.38;;;-2.78;100.00
21658;BME280;10990;48.174;9.782;2023-03-04T05:56:36;94715.56;;;-2.67;100.00
21658;BME280;10990;48.174;9.782;2023-03-04T05:59:03;94709.50;;;-2.54;100.00
21658;BME280;10990;48.174;9.782;2023-03-04T06:01:30;94728.97;;;-2.75;100.00
21658;BME280;10990;48.174;9.782;2023-03-04T06:03:56;94723.66;;;-2.74;100.00
21658;BME280;10990;48.174;9.782;2023-03-04T06:06:23;94726.44;;;-2.62;100.00
21658;BME280;10990;48.174;9.782;2023-03-04T06:08:51;94739.56;;;-2.80;100.00
21658;BME280;10990;48.174;9.782;2023-03-04T06:11:18;94720.81;;;-2.55;100.00
21658;BME280;10990;48.174;9.782;2023-03-04T06:13:44;94730.34;;;-2.55;100.00
21658;BME280;10990;48.174;9.782;2023-03-04T06:16:11;94750.03;;;-2.67;100.00
21658;BME280;10990;48.174;9.782;2023-03-04T06:18:38;94747.34;;;-2.65;100.00
21658;BME280;10990;48.174;9.782;2023-03-04T06:21:05;94758.16;;;-2.73;100.00
21658;BME280;10990;48.174;9.782;2023-03-04T06:23:31;94757.78;;;-2.67;100.00
21658;BME280;10990;48.174;9.782;2023-03-04T06:26:00;94749.47;;;-2.43;100.00
21658;BME280;10990;48.174;9.782;2023-03-04T06:28:27;94751.28;;;-2.31;100.00
21658;BME280;10990;48.174;9.782;2023-03-04T06:30:55;94750.94;;;-2.25;100.00
21658;BME280;10990;48.174;9.782;2023-03-04T06:33:22;94755.16;;;-2.10;100.00
21658;BME280;10990;48.174;9.782;2023-03-04T06:35:52;94757.47;;;-2.05;100.00
21658;BME280;10990;48.174;9.782;2023-03-04T06:38:19;94757.66;;;-1.81;100.00
21658;BME280;10990;48.174;9.782;2023-03-04T06:40:46;94764.16;;;-1.61;100.00
21658;BME280;10990;48.174;9.782;2023-03-04T06:43:14;94764.22;;;-1.48;100.00
21658;BME280;10990;48.174;9.782;2023-03-04T06:45:41;94774.28;;;-1.44;100.00
21658;BME280;10990;48.174;9.782;2023-03-04T06:48:08;94769.34;;;-1.34;100.00
21658;BME280;10990;48.174;9.782;2023-03-04T06:50:34;94774.34;;;-1.31;100.00
21658;BME280;10990;48.174;9.782;2023-03-04T06:53:01;94771.44;;;-1.26;100.00
21658;BME280;10990;48.174;9.782;2023-03-04T06:55:28;94762.34;;;-1.06;100.00
21658;BME280;10990;48.174;9.782;2023-03-04T06:57:55;94761.56;;;-0.81;100.00
21658;BME280;10990;48.174;9.782;2023-03-04T07:00:23;94770.13;;;-0.94;100.00
21658;BME280;10990;48.174;9.782;2023-03-04T07:02:50;94756.78;;;-0.75;100.00
21658;BME280;10990;48.174;9.782;2023-03-04T07:05:17;94765.88;;;-0.82;100.00
21658;BME280;10990;48.174;9.782;2023-03-04T07:07:43;94760.91;;;-0.59;100.00
21658;BME280;10990;48.174;9.782;2023-03-04T07:10:10;94748.75;;;-0.33;100.00
21658;BME280;10990;48.174;9.782;2023-03-04T07:12:37;94748.19;;;-0.13;100.00
21658;BME280;10990;48.174;9.782;2023-03-04T07:15:05;94751.81;;;-0.03;100.00
21658;BME280;10990;48.174;9.782;2023-03-04T07:17:33;94771.88;;;-0.17;100.00
21658;BME280;10990;48.174;9.782;2023-03-04T07:20:00;94760.09;;;0.03;100.00
21658;BME280;10990;48.174;9.782;2023-03-04T07:22:26;94751.44;;;0.39;100.00
21658;BME280;10990;48.174;9.782;2023-03-04T07:24:53;94765.56;;;0.72;100.00
21658;BME280;10990;48.174;9.782;2023-03-04T07:27:20;94767.06;;;0.98;100.00
21658;BME280;10990;48.174;9.782;2023-03-04T07:29:48;94781.91;;;1.09;100.00
21658;BME280;10990;48.174;9.782;2023-03-04T07:32:14;94788.66;;;1.11;100.00
21658;BME280;10990;48.174;9.782;2023-03-04T07:34:42;94776.94;;;1.97;100.00
21658;BME280;10990;48.174;9.782;2023-03-04T07:37:09;94797.69;;;2.10;100.00
21658;BME280;10990;48.174;9.782;2023-03-04T07:39:36;94822.09;;;2.20;100.00
21658;BME280;10990;48.174;9.782;2023-03-04T07:42:03;94832.97;;;2.59;100.00
21658;BME280;10990;48.174;9.782;2023-03-04T07:44:29;94836.50;;;3.13;100.00
21658;BME280;10990;48.174;9.782;2023-03-04T07:46:56;94872.75;;;3.59;100.00
21658;BME280;10990;48.174;9.782;2023-03-04T07:49:23;94902.34;;;3.60;100.00
21658;BME280;10990;48.174;9.782;2023-03-04T07:51:51;94969.63;;;3.58;100.00
21658;BME280;10990;48.174;9.782;2023-03-04T07:54:18;94978.69;;;4.07;100.00
21658;BME280;10990;48.174;9.782;2023-03-04T07:56:45;95007.34;;;4.71;100.00
21658;BME280;10990;48.174;9.782;2023-03-04T07:59:12;95080.66;;;4.92;100.00
21658;BME280;10990;48.174;9.782;2023-03-04T08:01:38;95141.50;;;4.75;100.00
21658;BME280;10990;48.174;9.782;2023-03-04T08:04:06;95154.44;;;5.60;100.00
21658;BME280;10990;48.174;9.782;2023-03-04T08:06:33;95205.63;;;6.16;100.00
21658;BME280;10990;48.174;9.782;2023-03-04T08:09:03;95306.25;;;6.17;100.00
21658;BME280;10990;48.174;9.782;2023-03-04T08:11:31;95355.63;;;6.23;100.00
21658;BME280;10990;48.174;9.782;2023-03-04T08:13:58;95393.88;;;5.83;100.00
21658;BME280;10990;48.174;9.782;2023-03-04T08:16:25;95390.75;;;7.03;100.00
21658;BME280;10990;48.174;9.782;2023-03-04T08:18:54;95474.63;;;7.06;100.00
21658;BME280;10990;48.174;9.782;2023-03-04T08:21:22;95555.53;;;7.23;100.00
21658;BME280;10990;48.174;9.782;2023-03-04T08:23:50;95614.09;;;7.15;100.00
21658;BME280;10990;48.174;9.782;2023-03-04T08:26:19;95644.34;;;7.52;100.00
21658;BME280;10990;48.174;9.782;2023-03-04T08:28:46;95692.78;;;7.28;100.00
21658;BME280;10990;48.174;9.782;2023-03-04T08:31:14;95716.38;;;7.81;100.00
21658;BME280;10990;48.174;9.782;2023-03-04T08:33:41;95771.31;;;8.17;100.00
21658;BME280;10990;48.174;9.782;2023-03-04T08:36:08;95814.88;;;9.02;100.00
21658;BME280;10990;48.174;9.782;2023-03-04T08:38:34;95876.16;;;8.02;100.00
21658;BME280;10990;48.174;9.782;2023-03-04T08:41:01;95855.75;;;9.36;100.00
21658;BME280;10990;48.174;9.782;2023-03-04T08:43:30;95906.47;;;9.30;100.00
21658;BME280;10990;48.174;9.782;2023-03-04T08:45:57;95935.63;;;9.29;100.00
21658;BME280;10990;48.174;9.782;2023-03-04T08:48:25;95960.13;;;9.40;100.00
21658;BME280;10990;48.174;9.782;2023-03-04T08:50:51;95965.81;;;9.05;100.00
21658;BME280;10990;48.174;9.782;2023-03-04T08:53:19;95982.72;;;8.93;100.00
21658;BME280;10990;48.174;9.782;2023-03-04T08:55:46;95990.38;;;9.36;100.00
21658;BME280;10990;48.174;9.782;2023-03-04T08:58:13;96002.34;;;10.10;100.00
21658;BME280;10990;48.174;9.782;2023-03-04T09:00:44;96027.28;;;10.27;100.00
21658;BME280;10990;48.174;9.782;2023-03-04T09:03:13;96052.56;;;9.19;100.00
21658;BME280;10990;48.174;9.782;2023-03-04T09:05:39;96040.97;;;9.82;100.00
21658;BME280;10990;48.174;9.782;2023-03-04T09:08:06;96061.72;;;9.96;100.00
21658;BME280;10990;48.174;9.782;2023-03-04T09:10:33;96077.47;;;10.07;100.00
21658;BME280;10990;48.174;9.782;2023-03-04T09:13:00;96100.25;;;10.39;100.00
21658;BME280;10990;48.174;9.782;2023-03-04T09:15:27;96106.47;;;10.28;100.00
21658;BME280;10990;48.174;9.782;2023-03-04T09:17:55;96122.94;;;11.00;100.00
21658;BME280;10990;48.174;9.782;2023-03-04T09:20:22;96151.56;;;9.96;100.00
21658;BME280;10990;48.174;9.782;2023-03-04T09:22:49;96157.00;;;10.04;100.00
21658;BME280;10990;48.174;9.782;2023-03-04T09:25:15;96161.63;;;9.72;100.00
21658;BME280;10990;48.174;9.782;2023-03-04T09:27:42;96157.72;;;10.06;100.00
21658;BME280;10990;48.174;9.782;2023-03-04T09:30:10;96161.03;;;9.68;100.00
21658;BME280;10990;48.174;9.782;2023-03-04T09:32:37;96160.16;;;9.88;100.00
21658;BME280;10990;48.174;9.782;2023-03-04T09:35:06;96167.56;;;9.43;100.00
21658;BME280;10990;48.174;9.782;2023-03-04T09:37:34;96161.22;;;10.57;100.00
21658;BME280;10990;48.174;9.782;2023-03-04T09:40:01;96167.38;;;10.67;100.00
21658;BME280;10990;48.174;9.782;2023-03-04T09:42:32;96171.41;;;9.60;100.00
21658;BME280;10990;48.174;9.782;2023-03-04T09:45:01;96158.56;;;10.67;100.00
21658;BME280;10990;48.174;9.782;2023-03-04T09:47:29;96169.78;;;11.66;100.00
21658;BME280;10990;48.174;9.782;2023-03-04T09:49:59;96193.19;;;11.80;100.00
21658;BME280;10990;48.174;9.782;2023-03-04T09:52:39;96185.53;;;13.06;100.00
21658;BME280;10990;48.174;9.782;2023-03-04T09:55:17;96208.69;;;12.50;100.00
21658;BME280;10990;48.174;9.782;2023-03-04T09:57:49;96197.31;;;13.83;100.00
21658;BME280;10990;48.174;9.782;2023-03-04T10:00:19;96206.44;;;14.06;100.00
21658;BME280;10990;48.174;9.782;2023-03-04T10:03:15;96213.47;;;14.16;100.00
21658;BME280;10990;48.174;9.782;2023-03-04T10:05:48;96221.34;;;13.29;100.00
21658;BME280;10990;48.174;9.782;2023-03-04T10:08:36;96215.47;;;13.43;100.00
21658;BME280;10990;48.174;9.782;2023-03-04T10:11:09;96228.09;;;11.37;100.00
21658;BME280;10990;48.174;9.782;2023-03-04T10:13:42;96219.53;;;10.46;100.00
21658;BME280;10990;48.174;9.782;2023-03-04T10:16:14;96202.16;;;12.44;100.00
21658;BME280;10990;48.174;9.782;2023-03-04T10:18:48;96204.44;;;13.82;100.00
21658;BME280;10990;48.174;9.782;2023-03-04T10:21:21;96211.78;;;12.45;100.00
21658;BME280;10990;48.174;9.782;2023-03-04T10:23:50;96198.97;;;13.22;100.00
21658;BME280;10990;48.174;9.782;2023-03-04T10:26:20;96198.56;;;13.71;100.00
21658;BME280;10990;48.174;9.782;2023-03-04T10:28:48;96206.59;;;12.16;100.00
21658;BME280;10990;48.174;9.782;2023-03-04T10:31:20;96197.59;;;13.00;100.00
21658;BME280;10990;48.174;9.782;2023-03-04T10:33:48;96197.81;;;12.53;100.00
21658;BME280;10990;48.174;9.782;2023-03-04T10:36:33;96195.78;;;12.37;100.00
21658;BME280;10990;48.174;9.782;2023-03-04T10:39:07;96192.66;;;13.59;100.00
21658;BME280;10990;48.174;9.782;2023-03-04T10:41:35;96204.25;;;12.68;100.00
21658;BME280;10990;48.174;9.782;2023-03-04T10:44:04;96200.19;;;12.46;100.00
21658;BME280;10990;48.174;9.782;2023-03-04T10:46:38;96206.47;;;11.61;100.00
21658;BME280;10990;48.174;9.782;2023-03-04T10:49:05;96198.31;;;12.01;100.00
21658;BME280;10990;48.174;9.782;2023-03-04T10:51:41;96187.00;;;13.80;100.00
21658;BME280;10990;48.174;9.782;2023-03-04T10:54:19;96185.66;;;14.10;100.00
21658;BME280;10990;48.174;9.782;2023-03-04T10:56:55;96184.63;;;13.77;100.00
21658;BME280;10990;48.174;9.782;2023-03-04T10:59:42;96194.56;;;12.22;100.00
21658;BME280;10990;48.174;9.782;2023-03-04T11:02:16;96192.03;;;12.30;100.00
21658;BME280;10990;48.174;9.782;2023-03-04T11:04:48;96202.47;;;10.98;100.00
21658;BME280;10990;48.174;9.782;2023-03-04T11:07:17;96202.69;;;9.55;100.00
21658;BME280;10990;48.174;9.782;2023-03-04T11:09:45;96194.69;;;10.87;100.00
21658;BME280;10990;48.174;9.782;2023-03-04T11:12:14;96179.47;;;11.28;100.00
21658;BME280;10990;48.174;9.782;2023-03-04T11:14:45;96187.66;;;10.67;100.00
21658;BME280;10990;48.174;9.782;2023-03-04T11:17:18;96179.72;;;10.67;100.00
21658;BME280;10990;48.174;9.782;2023-03-04T11:19:49;96175.34;;;10.27;100.00
21658;BME280;10990;48.174;9.782;2023-03-04T11:22:19;96168.34;;;10.86;100.00
21658;BME280;10990;48.174;9.782;2023-03-04T11:24:54;96165.41;;;10.60;100.00
21658;BME280;10990;48.174;9.782;2023-03-04T11:27:28;96169.84;;;10.19;100.00
21658;BME280;10990;48.174;9.782;2023-03-04T11:29:59;96163.91;;;9.13;100.00
21658;BME280;10990;48.174;9.782;2023-03-04T11:32:33;96154.50;;;9.20;100.00
21658;BME280;10990;48.174;9.782;2023-03-04T11:35:07;96153.22;;;9.36;100.00
21658;BME280;10990;48.174;9.782;2023-03-04T11:37:44;96147.72;;;8.65;100.00
21658;BME280;10990;48.174;9.782;2023-03-04T11:40:17;96142.41;;;8.76;100.00
21658;BME280;10990;48.174;9.782;2023-03-04T11:42:52;96140.06;;;8.62;100.00
21658;BME280;10990;48.174;9.782;2023-03-04T11:45:24;96137.50;;;8.39;100.00
21658;BME280;10990;48.174;9.782;2023-03-04T11:48:01;96135.75;;;8.06;100.00
21658;BME280;10990;48.174;9.782;2023-03-04T11:50:30;96110.34;;;8.05;100.00
21658;BME280;10990;48.174;9.782;2023-03-04T11:53:14;96112.00;;;8.17;100.00
21658;BME280;10990;48.174;9.782;2023-03-04T11:55:49;96098.50;;;8.54;100.00
21658;BME280;10990;48.174;9.782;2023-03-04T11:58:39;96099.34;;;8.75;100.00
21658;BME280;10990;48.174;9.782;2023-03-04T12:01:14;96100.41;;;8.52;100.00
21658;BME280;10990;48.174;9.782;2023-03-04T12:04:01;96106.44;;;8.43;100.00
21658;BME280;10990;48.174;9.782;2023-03-04T12:06:36;96119.47;;;7.90;100.00
21658;BME280;10990;48.174;9.782;2023-03-04T12:09:17;96110.19;;;8.18;100.00
21658;BME280;10990;48.174;9.782;2023-03-04T12:12:00;96111.28;;;8.15;100.00
21658;BME280;10990;48.174;9.782;2023-03-04T12:14:35;96117.63;;;8.13;100.00
21658;BME280;10990;48.174;9.782;2023-03-04T12:17:25;96115.16;;;8.00;100.00
21658;BME280;10990;48.174;9.782;2023-03-04T12:20:09;96118.41;;;7.70;100.00
21658;BME280;10990;48.174;9.782;2023-03-04T12:22:43;96123.78;;;7.91;100.00
21658;BME280;10990;48.174;9.782;2023-03-04T12:25:23;96114.53;;;8.07;100.00
21658;BME280;10990;48.174;9.782;2023-03-04T12:28:02;96106.72;;;8.28;100.00
21658;BME280;10990;48.174;9.782;2023-03-04T12:30:48;96104.63;;;8.00;100.00
21658;BME280;10990;48.174;9.782;2023-03-04T12:33:28;96105.13;;;7.71;100.00
21658;BME280;10990;48.174;9.782;2023-03-04T12:36:02;96104.91;;;7.52;100.00
21658;BME280;10990;48.174;9.782;2023-03-04T12:38:43;96099.63;;;7.74;100.00
21658;BME280;10990;48.174;9.782;2023-03-04T12:41:25;96102.50;;;7.49;100.00
21658;BME280;10990;48.174;9.782;2023-03-04T12:44:01;96094.00;;;7.34;100.00
21658;BME280;10990;48.174;9.782;2023-03-04T12:46:38;96093.41;;;7.64;100.00
21658;BME280;10990;48.174;9.782;2023-03-04T12:49:18;96105.25;;;7.47;100.00
21658;BME280;10990;48.174;9.782;2023-03-04T12:51:55;96104.53;;;7.45;100.00
21658;BME280;10990;48.174;9.782;2023-03-04T12:54:30;96110.38;;;7.49;100.00
21658;BME280;10990;48.174;9.782;2023-03-04T12:57:00;96111.94;;;7.29;100.00
21658;BME280;10990;48.174;9.782;2023-03-04T12:59:33;96111.81;;;7.08;100.00
21658;BME280;10990;48.174;9.782;2023-03-04T13:02:20;96113.84;;;7.15;100.00
21658;BME280;10990;48.174;9.782;2023-03-04T13:04:59;96105.31;;;7.01;100.00